createdAt,value
2019-05-07T00:00:34.553Z,98.60
2019-05-07T00:03:03.415Z,98.80
2019-05-07T00:05:33.191Z,98.50
2019-05-07T00:08:03.035Z,98.40
2019-05-07T00:10:33.173Z,98.80
2019-05-07T00:13:02.465Z,98.40
2019-05-07T00:15:32.825Z,98.60
2019-05-07T00:18:03.162Z,98.40
2019-05-07T00:20:32.712Z,98.40
2019-05-07T00:23:02.996Z,98.40
2019-05-07T00:25:32.849Z,98.50
2019-05-07T00:28:02.751Z,98.50
2019-05-07T00:30:33.214Z,98.50
2019-05-07T00:33:02.749Z,98.60
2019-05-07T00:35:35.912Z,98.70
2019-05-07T00:38:12.923Z,98.70
2019-05-07T00:40:45.860Z,98.80
2019-05-07T00:43:18.882Z,99.10
2019-05-07T00:45:49.097Z,99.60
2019-05-07T00:48:17.689Z,99.90
2019-05-07T00:50:47.970Z,99.90
2019-05-07T00:53:16.721Z,99.60
2019-05-07T00:55:45.374Z,99.90
2019-05-07T00:58:14.048Z,99.90
2019-05-07T01:00:42.628Z,99.90
2019-05-07T01:03:12.866Z,99.90
2019-05-07T01:05:43.209Z,99.90
2019-05-07T01:08:13.152Z,99.90
2019-05-07T01:10:42.079Z,99.90
2019-05-07T01:13:12.598Z,99.90
2019-05-07T01:15:42.951Z,99.90
2019-05-07T01:18:12.364Z,99.90
2019-05-07T01:20:42.352Z,99.90
2019-05-07T01:23:13.347Z,99.90
2019-05-07T01:25:43.030Z,99.90
2019-05-07T01:28:13.217Z,99.90
2019-05-07T01:30:43.209Z,99.90
2019-05-07T01:33:13.764Z,99.90
2019-05-07T01:35:43.986Z,99.90
2019-05-07T01:38:13.797Z,99.90
2019-05-07T01:40:42.826Z,99.90
2019-05-07T01:43:12.078Z,99.90
2019-05-07T01:45:49.225Z,99.90
2019-05-07T01:48:34.212Z,99.90
2019-05-07T01:51:03.540Z,99.90
2019-05-07T01:53:32.449Z,99.90
2019-05-07T01:56:03.295Z,99.90
2019-05-07T01:58:33.108Z,99.90
2019-05-07T02:01:02.747Z,99.90
2019-05-07T02:03:44.971Z,99.90
2019-05-07T02:06:18.024Z,99.90
2019-05-07T02:09:04.741Z,99.90
2019-05-07T02:11:42.235Z,99.90
2019-05-07T02:14:11.013Z,99.90
2019-05-07T02:16:41.739Z,99.90
2019-05-07T02:19:09.821Z,99.90
2019-05-07T02:21:38.398Z,99.90
2019-05-07T02:24:07.050Z,99.90
2019-05-07T02:26:35.975Z,99.90
2019-05-07T02:29:04.730Z,99.90
2019-05-07T02:31:33.930Z,99.90
2019-05-07T02:34:02.987Z,99.90
2019-05-07T02:36:33.986Z,99.90
2019-05-07T02:39:04.418Z,99.90
2019-05-07T02:41:34.923Z,99.90
2019-05-07T02:44:04.368Z,99.90
2019-05-07T02:46:36.289Z,99.90
2019-05-07T02:49:06.755Z,99.90
2019-05-07T02:51:37.125Z,99.90
2019-05-07T02:54:07.428Z,99.90
2019-05-07T02:56:36.453Z,99.90
2019-05-07T02:59:05.186Z,99.90
2019-05-07T03:01:34.235Z,99.90
2019-05-07T03:04:03.654Z,99.90
2019-05-07T03:06:33.882Z,99.90
2019-05-07T03:09:03.383Z,99.90
2019-05-07T03:11:33.901Z,99.90
2019-05-07T03:14:03.362Z,99.90
2019-05-07T03:16:39.805Z,99.90
2019-05-07T03:19:04.108Z,99.90
2019-05-07T03:21:53.962Z,99.90
2019-05-07T03:24:23.190Z,99.90
2019-05-07T03:26:53.534Z,99.90
2019-05-07T03:29:24.129Z,99.90
2019-05-07T03:32:06.153Z,99.90
2019-05-07T03:34:38.205Z,99.90
2019-05-07T03:37:08.400Z,99.90
2019-05-07T03:39:56.309Z,99.90
2019-05-07T03:42:24.904Z,99.90
2019-05-07T03:45:03.640Z,99.90
2019-05-07T03:47:33.318Z,99.90
2019-05-07T03:50:03.303Z,99.90
2019-05-07T03:52:33.593Z,99.90
2019-05-07T03:55:03.650Z,99.90
2019-05-07T03:57:33.319Z,99.90
2019-05-07T04:00:04.249Z,99.90
2019-05-07T04:02:33.435Z,99.90
2019-05-07T04:05:04.334Z,99.90
2019-05-07T04:07:33.627Z,99.90
2019-05-07T04:10:04.726Z,99.90
2019-05-07T04:12:34.266Z,99.90
2019-05-07T04:15:03.673Z,99.90
2019-05-07T04:17:33.965Z,99.90
2019-05-07T04:20:04.474Z,99.90
2019-05-07T04:22:34.518Z,99.90
2019-05-07T04:25:16.012Z,99.90
2019-05-07T04:27:55.484Z,99.90
2019-05-07T04:30:24.476Z,99.90
2019-05-07T04:32:54.911Z,99.90
2019-05-07T04:35:43.116Z,99.90
2019-05-07T04:38:13.348Z,99.90
2019-05-07T04:40:43.483Z,99.90
2019-05-07T04:43:13.659Z,99.90
2019-05-07T04:45:43.280Z,99.90
2019-05-07T04:48:14.201Z,99.90
2019-05-07T04:50:47.580Z,99.90
2019-05-07T04:53:14.706Z,99.90
2019-05-07T04:55:43.367Z,99.90
2019-05-07T04:58:14.076Z,99.90
2019-05-07T05:00:43.167Z,99.90
2019-05-07T05:03:13.711Z,99.90
2019-05-07T05:05:43.543Z,99.90
2019-05-07T05:08:13.353Z,99.90
2019-05-07T05:10:43.345Z,99.90
2019-05-07T05:13:13.113Z,99.90
2019-05-07T05:15:43.149Z,99.90
2019-05-07T05:18:12.893Z,99.90
2019-05-07T05:20:46.375Z,99.90
2019-05-07T05:23:32.273Z,99.90
2019-05-07T05:26:01.963Z,99.90
2019-05-07T05:28:32.338Z,99.90
2019-05-07T05:31:03.395Z,99.90
2019-05-07T05:33:32.635Z,99.90
2019-05-07T05:36:03.056Z,99.90
2019-05-07T05:38:32.882Z,99.90
2019-05-07T05:41:02.747Z,99.90
2019-05-07T05:43:36.380Z,99.90
2019-05-07T05:46:06.734Z,99.90
2019-05-07T05:48:35.289Z,99.90
2019-05-07T05:51:05.650Z,99.90
2019-05-07T05:53:44.499Z,99.90
2019-05-07T05:56:32.510Z,99.90
2019-05-07T05:59:24.159Z,99.90
2019-05-07T06:02:05.938Z,99.90
2019-05-07T06:04:34.336Z,99.90
2019-05-07T06:07:22.673Z,99.90
2019-05-07T06:09:58.464Z,99.90
2019-05-07T06:12:28.665Z,99.90
2019-05-07T06:14:59.128Z,99.90
2019-05-07T06:17:32.203Z,99.90
2019-05-07T06:20:03.073Z,99.90
2019-05-07T06:22:45.351Z,99.90
2019-05-07T06:25:15.739Z,99.90
2019-05-07T06:27:44.302Z,99.90
2019-05-07T06:30:13.277Z,99.90
2019-05-07T06:32:42.972Z,99.90
2019-05-07T06:35:13.207Z,99.90
2019-05-07T06:37:42.993Z,99.90
2019-05-07T06:40:19.402Z,99.90
2019-05-07T06:42:52.397Z,99.90
2019-05-07T06:45:28.389Z,99.90
2019-05-07T06:47:57.047Z,99.90
2019-05-07T06:50:25.766Z,99.90
2019-05-07T06:52:54.500Z,99.90
2019-05-07T06:55:23.043Z,99.90
2019-05-07T06:57:53.013Z,99.90
2019-05-07T07:00:24.975Z,99.90
2019-05-07T07:03:12.750Z,99.90
2019-05-07T07:05:43.123Z,99.90
2019-05-07T07:08:25.506Z,99.90
2019-05-07T07:11:12.888Z,99.90
2019-05-07T07:13:42.702Z,99.90
2019-05-07T07:16:12.709Z,99.80
2019-05-07T07:18:51.286Z,99.70
2019-05-07T07:21:12.428Z,99.50
2019-05-07T07:23:42.923Z,99.60
2019-05-07T07:26:12.619Z,99.40
2019-05-07T07:28:42.995Z,98.50
2019-05-07T07:31:19.445Z,98.90
2019-05-07T07:33:49.730Z,98.60
2019-05-07T07:36:19.815Z,98.40
2019-05-07T07:38:48.470Z,98.00
2019-05-07T07:41:22.231Z,97.90
2019-05-07T07:43:52.604Z,97.70
2019-05-07T07:46:22.281Z,97.40
2019-05-07T07:49:04.255Z,97.20
2019-05-07T07:51:36.721Z,97.40
2019-05-07T07:53:52.096Z,96.60
2019-05-07T07:56:49.074Z,96.90
2019-05-07T07:59:15.239Z,96.90
2019-05-07T08:02:03.625Z,96.70
2019-05-07T08:04:32.607Z,96.50
2019-05-07T08:07:04.005Z,96.40
2019-05-07T08:09:34.841Z,96.20
2019-05-07T08:12:04.248Z,95.50
2019-05-07T08:14:33.332Z,95.40
2019-05-07T08:17:03.694Z,95.50
2019-05-07T08:19:32.907Z,95.30
2019-05-07T08:22:02.891Z,95.40
2019-05-07T08:24:32.140Z,95.30
2019-05-07T08:27:02.465Z,94.20
2019-05-07T08:29:32.619Z,94.30
2019-05-07T08:32:12.711Z,94.40
2019-05-07T08:34:42.996Z,93.60
2019-05-07T08:37:12.096Z,94.20
2019-05-07T08:39:42.882Z,94.10
2019-05-07T08:42:12.259Z,94.10
2019-05-07T08:44:43.158Z,93.40
2019-05-07T08:47:13.573Z,93.30
2019-05-07T08:49:43.528Z,92.50
2019-05-07T08:52:12.618Z,92.60
2019-05-07T08:54:42.809Z,92.50
2019-05-07T08:57:12.131Z,91.90
2019-05-07T08:59:43.742Z,91.30
2019-05-07T09:02:12.561Z,90.50
2019-05-07T09:04:41.856Z,90.20
2019-05-07T09:07:12.814Z,89.70
2019-05-07T09:09:42.627Z,90.40
2019-05-07T09:12:12.572Z,88.60
2019-05-07T09:14:42.619Z,86.20
2019-05-07T09:17:12.771Z,84.30
2019-05-07T09:19:50.692Z,84.80
2019-05-07T09:22:12.838Z,82.00
2019-05-07T09:24:42.438Z,80.70
2019-05-07T09:27:16.178Z,78.40
2019-05-07T09:29:49.057Z,78.20
2019-05-07T09:32:19.371Z,80.10
2019-05-07T09:34:52.850Z,77.50
2019-05-07T09:37:23.227Z,77.50
2019-05-07T09:39:51.951Z,73.00
2019-05-07T09:42:22.441Z,76.00
2019-05-07T09:44:52.744Z,71.90
2019-05-07T09:47:21.954Z,68.70
2019-05-07T09:50:04.283Z,66.70
2019-05-07T09:52:22.869Z,66.80
2019-05-07T09:54:52.260Z,69.50
2019-05-07T09:57:30.053Z,68.20
2019-05-07T09:59:53.065Z,69.00
2019-05-07T10:02:22.671Z,69.80
2019-05-07T10:04:52.614Z,69.80
2019-05-07T10:07:22.472Z,63.60
2019-05-07T10:09:52.253Z,63.70
2019-05-07T10:12:37.986Z,63.90
2019-05-07T10:15:08.131Z,64.00
2019-05-07T10:17:38.485Z,65.50
2019-05-07T10:20:19.325Z,65.00
2019-05-07T10:22:39.459Z,62.80
2019-05-07T10:25:08.271Z,62.90
2019-05-07T10:27:38.644Z,60.50
2019-05-07T10:30:07.636Z,60.70
2019-05-07T10:32:36.399Z,59.10
2019-05-07T10:35:08.670Z,59.60
2019-05-07T10:37:37.321Z,61.40
2019-05-07T10:40:12.077Z,60.20
2019-05-07T10:42:42.762Z,60.10
2019-05-07T10:45:13.134Z,65.80
2019-05-07T10:47:59.872Z,57.70
2019-05-07T10:50:38.870Z,56.80
2019-05-07T10:53:02.100Z,55.70
2019-05-07T10:55:32.796Z,57.40
2019-05-07T10:58:03.010Z,56.70
2019-05-07T11:00:33.157Z,55.30
2019-05-07T11:03:02.486Z,55.90
2019-05-07T11:05:32.612Z,54.90
2019-05-07T11:08:02.475Z,54.20
2019-05-07T11:10:32.635Z,55.80
2019-05-07T11:13:02.400Z,53.40
2019-05-07T11:15:32.651Z,54.20
2019-05-07T11:18:15.910Z,51.30
2019-05-07T11:20:49.672Z,51.50
2019-05-07T11:23:14.932Z,51.90
2019-05-07T11:25:43.565Z,52.90
2019-05-07T11:28:12.501Z,52.40
2019-05-07T11:30:42.573Z,53.00
2019-05-07T11:33:12.811Z,52.50
2019-05-07T11:35:42.246Z,52.20
2019-05-07T11:38:20.602Z,52.50
2019-05-07T11:40:42.777Z,52.30
2019-05-07T11:43:28.897Z,51.90
2019-05-07T11:46:08.078Z,52.10
2019-05-07T11:48:38.315Z,50.60
2019-05-07T11:51:27.052Z,51.90
2019-05-07T11:54:08.403Z,52.40
2019-05-07T11:56:37.507Z,52.70
2019-05-07T11:59:06.627Z,51.30
2019-05-07T12:01:44.572Z,52.00
2019-05-07T12:04:07.567Z,50.40
2019-05-07T12:06:36.202Z,51.40
2019-05-07T12:09:07.230Z,50.40
2019-05-07T12:11:36.224Z,49.10
2019-05-07T12:14:05.204Z,50.50
2019-05-07T12:16:33.776Z,51.00
2019-05-07T12:19:02.455Z,51.30
2019-05-07T12:21:31.491Z,50.30
2019-05-07T12:24:02.162Z,51.30
2019-05-07T12:26:31.959Z,51.60
2019-05-07T12:29:00.590Z,53.10
2019-05-07T12:31:42.631Z,51.60
2019-05-07T12:34:13.293Z,51.80
2019-05-07T12:36:41.876Z,49.90
2019-05-07T12:39:12.584Z,49.90
2019-05-07T12:41:41.906Z,49.90
2019-05-07T12:44:12.982Z,50.00
2019-05-07T12:46:42.410Z,50.00
2019-05-07T12:49:12.017Z,49.00
2019-05-07T12:51:47.861Z,49.50
2019-05-07T12:54:23.799Z,50.40
2019-05-07T12:56:52.417Z,50.70
2019-05-07T12:59:21.849Z,50.40
2019-05-07T13:02:26.609Z,50.00
2019-05-07T13:04:41.817Z,50.60
2019-05-07T13:07:24.526Z,51.70
2019-05-07T13:09:53.791Z,51.20
2019-05-07T13:12:22.501Z,50.30
2019-05-07T13:14:52.167Z,52.60
2019-05-07T13:17:22.420Z,52.40
2019-05-07T13:19:52.445Z,50.80
2019-05-07T13:22:21.979Z,51.70
2019-05-07T13:24:52.827Z,51.10
2019-05-07T13:27:21.277Z,51.10
2019-05-07T13:29:49.927Z,51.20
2019-05-07T13:32:19.266Z,52.40
2019-05-07T13:34:47.916Z,52.50
2019-05-07T13:37:23.794Z,52.50
2019-05-07T13:39:54.110Z,53.60
2019-05-07T13:42:43.944Z,52.90
2019-05-07T13:45:31.750Z,52.80
2019-05-07T13:48:02.823Z,52.00
2019-05-07T13:50:32.530Z,49.60
2019-05-07T13:53:01.788Z,47.50
2019-05-07T13:55:32.265Z,44.30
2019-05-07T13:58:00.917Z,40.20
2019-05-07T14:00:32.448Z,38.40
2019-05-07T14:03:03.227Z,38.10
2019-05-07T14:05:32.384Z,37.90
2019-05-07T14:08:04.332Z,39.50
2019-05-07T14:10:33.694Z,40.50
2019-05-07T14:13:12.577Z,41.80
2019-05-07T14:15:35.050Z,42.10
2019-05-07T14:18:03.191Z,43.30
2019-05-07T14:20:32.998Z,44.60
2019-05-07T14:23:01.729Z,46.30
2019-05-07T14:25:32.492Z,48.20
2019-05-07T14:28:02.259Z,50.00
2019-05-07T14:30:32.849Z,50.40
2019-05-07T14:33:05.717Z,50.50
2019-05-07T14:35:38.100Z,51.70
2019-05-07T14:38:13.680Z,51.70
2019-05-07T14:40:42.662Z,52.90
2019-05-07T14:43:13.041Z,53.60
2019-05-07T14:45:42.156Z,53.30
2019-05-07T14:48:12.168Z,53.90
2019-05-07T14:50:41.951Z,52.70
2019-05-07T14:53:11.954Z,51.70
2019-05-07T14:55:41.796Z,48.60
2019-05-07T14:58:12.447Z,46.00
2019-05-07T15:00:42.734Z,47.30
2019-05-07T15:03:12.462Z,46.60
2019-05-07T15:05:42.241Z,46.90
2019-05-07T15:08:14.078Z,46.80
2019-05-07T15:10:41.920Z,46.90
2019-05-07T15:13:12.595Z,47.30
2019-05-07T15:15:41.359Z,46.30
2019-05-07T15:18:15.727Z,47.00
2019-05-07T15:20:44.612Z,47.60
2019-05-07T15:23:15.360Z,47.30
2019-05-07T15:25:44.116Z,48.00
2019-05-07T15:28:13.344Z,49.00
2019-05-07T15:30:46.354Z,50.20
2019-05-07T15:33:15.042Z,50.70
2019-05-07T15:35:43.748Z,51.10
2019-05-07T15:38:12.471Z,51.70
2019-05-07T15:40:42.236Z,51.90
2019-05-07T15:43:12.902Z,51.30
2019-05-07T15:45:41.450Z,51.20
2019-05-07T15:48:10.122Z,50.10
2019-05-07T15:50:38.773Z,51.10
2019-05-07T15:53:09.084Z,51.40
2019-05-07T15:55:37.707Z,52.30
2019-05-07T15:58:06.469Z,53.40
2019-05-07T16:00:36.351Z,53.20
2019-05-07T16:03:07.051Z,53.90
2019-05-07T16:05:35.906Z,53.80
2019-05-07T16:08:05.989Z,54.30
2019-05-07T16:10:34.699Z,53.10
2019-05-07T16:13:03.619Z,54.30
2019-05-07T16:15:32.464Z,54.30
2019-05-07T16:18:17.523Z,54.50
2019-05-07T16:20:46.080Z,55.10
2019-05-07T16:23:18.060Z,55.40
2019-05-07T16:25:45.005Z,56.00
2019-05-07T16:28:13.645Z,56.00
2019-05-07T16:30:42.745Z,56.70
2019-05-07T16:33:12.773Z,57.80
2019-05-07T16:35:42.589Z,58.10
2019-05-07T16:38:14.570Z,57.90
2019-05-07T16:40:42.857Z,58.00
2019-05-07T16:43:12.224Z,58.20
2019-05-07T16:45:42.409Z,57.80
2019-05-07T16:48:12.748Z,58.40
2019-05-07T16:50:41.400Z,59.10
2019-05-07T16:53:12.174Z,59.80
2019-05-07T16:55:40.595Z,59.50
2019-05-07T16:58:12.551Z,59.80
2019-05-07T17:00:42.953Z,60.50
2019-05-07T17:03:13.337Z,60.90
2019-05-07T17:05:42.864Z,59.10
2019-05-07T17:08:13.188Z,58.30
2019-05-07T17:10:42.480Z,58.70
2019-05-07T17:13:12.503Z,58.60
2019-05-07T17:15:57.693Z,58.70
2019-05-07T17:18:28.547Z,58.60
2019-05-07T17:20:58.391Z,58.40
2019-05-07T17:23:34.408Z,58.80
2019-05-07T17:25:57.530Z,58.80
2019-05-07T17:28:27.837Z,58.60
2019-05-07T17:30:56.699Z,59.10
2019-05-07T17:33:25.239Z,58.50
2019-05-07T17:35:53.988Z,58.10
2019-05-07T17:38:23.195Z,58.70
2019-05-07T17:40:52.278Z,58.50
2019-05-07T17:43:21.975Z,59.10
2019-05-07T17:45:52.342Z,60.10
2019-05-07T17:48:23.152Z,59.50
2019-05-07T17:51:08.505Z,59.10
2019-05-07T17:53:37.824Z,59.50
2019-05-07T17:56:06.394Z,59.60
2019-05-07T17:58:35.052Z,60.00
2019-05-07T18:01:05.043Z,60.20
2019-05-07T18:03:35.561Z,60.50
2019-05-07T18:06:05.033Z,61.70
2019-05-07T18:08:33.766Z,62.40
2019-05-07T18:11:02.721Z,62.10
2019-05-07T18:13:32.936Z,63.30
2019-05-07T18:16:09.282Z,63.40
2019-05-07T18:18:37.900Z,64.80
2019-05-07T18:21:06.926Z,64.40
2019-05-07T18:23:35.727Z,64.60
2019-05-07T18:26:04.446Z,65.40
2019-05-07T18:28:32.997Z,65.20
2019-05-07T18:31:02.151Z,65.60
2019-05-07T18:33:52.366Z,66.20
2019-05-07T18:36:22.687Z,65.80
2019-05-07T18:38:52.813Z,66.30
2019-05-07T18:41:22.428Z,66.90
2019-05-07T18:43:54.420Z,67.70
2019-05-07T18:46:22.113Z,67.60
2019-05-07T18:48:51.805Z,68.70
2019-05-07T18:51:20.762Z,68.10
2019-05-07T18:53:49.364Z,68.30
2019-05-07T18:56:17.929Z,68.70
2019-05-07T18:58:46.513Z,70.50
2019-05-07T19:01:16.356Z,70.80
2019-05-07T19:03:45.248Z,71.60
2019-05-07T19:06:13.982Z,72.30
2019-05-07T19:08:42.550Z,73.40
2019-05-07T19:11:12.252Z,74.10
2019-05-07T19:13:41.943Z,75.50
2019-05-07T19:16:12.388Z,75.70
2019-05-07T19:18:43.048Z,76.00
2019-05-07T19:21:11.911Z,76.60
2019-05-07T19:23:42.414Z,76.80
2019-05-07T19:26:13.098Z,77.50
2019-05-07T19:28:41.521Z,77.80
2019-05-07T19:31:12.268Z,78.70
2019-05-07T19:33:41.943Z,78.70
2019-05-07T19:36:11.318Z,77.40
2019-05-07T19:38:41.933Z,79.00
2019-05-07T19:41:12.315Z,78.60
2019-05-07T19:43:41.930Z,78.70
2019-05-07T19:46:12.349Z,79.00
2019-05-07T19:48:41.167Z,79.10
2019-05-07T19:51:12.021Z,79.60
2019-05-07T19:53:41.946Z,80.80
2019-05-07T19:56:12.525Z,80.70
2019-05-07T19:58:41.883Z,80.80
2019-05-07T20:01:12.197Z,81.40
2019-05-07T20:03:40.846Z,81.50
2019-05-07T20:06:09.572Z,82.20
2019-05-07T20:08:38.144Z,82.90
2019-05-07T20:11:14.206Z,82.60
2019-05-07T20:13:43.773Z,83.40
2019-05-07T20:16:14.200Z,86.40
2019-05-07T20:18:42.986Z,84.90
2019-05-07T20:21:12.405Z,84.70
2019-05-07T20:23:43.131Z,85.30
2019-05-07T20:26:12.635Z,85.00
2019-05-07T20:28:41.839Z,85.10
2019-05-07T20:31:12.292Z,85.30
2019-05-07T20:33:42.246Z,85.60
2019-05-07T20:36:11.236Z,85.90
2019-05-07T20:38:39.894Z,86.00
2019-05-07T20:41:08.734Z,86.40
2019-05-07T20:43:38.262Z,86.80
2019-05-07T20:46:07.001Z,86.70
2019-05-07T20:48:35.611Z,86.60
2019-05-07T20:51:04.691Z,86.60
2019-05-07T20:53:52.274Z,86.40
2019-05-07T20:56:22.768Z,86.70
2019-05-07T20:58:52.028Z,86.70
2019-05-07T21:01:22.025Z,87.10
2019-05-07T21:03:52.593Z,87.00
2019-05-07T21:06:22.535Z,87.50
2019-05-07T21:08:51.299Z,87.10
2019-05-07T21:11:19.924Z,87.20
2019-05-07T21:13:48.556Z,87.50
2019-05-07T21:16:17.179Z,87.60
2019-05-07T21:18:45.751Z,88.00
2019-05-07T21:21:14.403Z,87.80
2019-05-07T21:23:43.538Z,89.30
2019-05-07T21:26:13.293Z,89.20
2019-05-07T21:28:43.129Z,88.50
2019-05-07T21:31:12.470Z,88.40
2019-05-07T21:33:42.917Z,88.00
2019-05-07T21:36:12.074Z,88.70
2019-05-07T21:38:42.684Z,89.30
2019-05-07T21:41:12.887Z,88.60
2019-05-07T21:43:45.575Z,89.00
2019-05-07T21:46:12.750Z,90.00
2019-05-07T21:48:41.685Z,90.10
2019-05-07T21:51:12.175Z,90.00
2019-05-07T21:53:42.910Z,90.00
2019-05-07T21:56:29.726Z,90.20
2019-05-07T21:59:03.285Z,90.20
2019-05-07T22:01:33.576Z,90.40
2019-05-07T22:04:02.249Z,90.40
2019-05-07T22:06:31.310Z,90.60
2019-05-07T22:09:01.945Z,90.70
2019-05-07T22:11:32.130Z,90.40
2019-05-07T22:14:02.136Z,90.60
2019-05-07T22:16:32.886Z,90.80
2019-05-07T22:19:02.649Z,90.70
2019-05-07T22:21:33.902Z,90.70
2019-05-07T22:24:02.784Z,90.60
2019-05-07T22:26:32.310Z,90.60
2019-05-07T22:29:03.205Z,90.70
2019-05-07T22:31:38.967Z,90.80
2019-05-07T22:34:09.217Z,91.00
2019-05-07T22:36:37.935Z,90.90
2019-05-07T22:39:08.302Z,90.80
2019-05-07T22:41:36.868Z,91.20
2019-05-07T22:44:05.557Z,90.70
2019-05-07T22:46:34.140Z,91.00
2019-05-07T22:49:03.195Z,91.00
2019-05-07T22:51:31.944Z,91.30
2019-05-07T22:54:04.105Z,91.00
2019-05-07T22:56:49.052Z,91.30
2019-05-07T22:59:17.827Z,91.20
2019-05-07T23:01:46.484Z,91.50
2019-05-07T23:04:15.082Z,91.60
2019-05-07T23:06:43.770Z,91.60
2019-05-07T23:09:12.845Z,91.70
2019-05-07T23:11:41.683Z,91.50
2019-05-07T23:14:11.833Z,91.60
2019-05-07T23:16:40.649Z,91.70
2019-05-07T23:19:09.302Z,91.80
2019-05-07T23:21:38.359Z,91.70
2019-05-07T23:24:06.943Z,91.60
2019-05-07T23:26:47.210Z,91.60
2019-05-07T23:29:05.801Z,91.90
2019-05-07T23:31:34.408Z,92.00
2019-05-07T23:34:03.019Z,92.10
2019-05-07T23:36:31.614Z,92.00
2019-05-07T23:39:02.532Z,92.00
2019-05-07T23:41:42.081Z,92.10
2019-05-07T23:44:12.822Z,92.10
2019-05-07T23:46:42.609Z,92.20
2019-05-07T23:49:12.461Z,92.20
2019-05-07T23:51:42.108Z,92.10
2019-05-07T23:54:12.134Z,92.20
2019-05-07T23:56:42.664Z,92.10
2019-05-07T23:59:14.567Z,92.10
